Time;durP1;ratioP1;P1;durP2;ratioP2;P2;SDS_P1;SDS_P2;PMS_P1;PMS_P2;Temp;Humidity;BMP_temperature;BMP_pressure;BME280_temperature;BME280_humidity;BME280_pressure;Samples;Min_cycle;Max_cycle;Signal;HPM_P1;HPM_P2
2023/07/09 00:00:11;;;;;;;11.57;5.55;;;23.30;99.90;;;;;;5086914;28;20065;-60
2023/07/09 00:02:36;;;;;;;10.20;5.47;;;23.30;99.90;;;;;;5080435;28;20040;-60
2023/07/09 00:05:02;;;;;;;8.13;5.22;;;23.40;99.90;;;;;;5081017;28;20036;-59
2023/07/09 00:07:32;;;;;;;7.60;5.55;;;23.30;99.90;;;;;;5073150;28;20052;-63
2023/07/09 00:09:58;;;;;;;8.35;5.82;;;23.30;99.90;;;;;;5077865;28;20028;-60
2023/07/09 00:12:25;;;;;;;8.57;5.55;;;23.20;99.90;;;;;;5069871;28;20036;-60
2023/07/09 00:14:50;;;;;;;8.38;5.45;;;23.20;99.90;;;;;;5061681;28;20032;-60
2023/07/09 00:17:27;;;;;;;9.20;5.30;;;23.60;99.90;;;;;;5065141;28;20105;-60
2023/07/09 00:19:53;;;;;;;9.23;5.60;;;23.10;99.90;;;;;;5080048;28;20066;-60
2023/07/09 00:22:20;;;;;;;6.85;5.07;;;23.10;99.90;;;;;;5076850;28;20574;-60
2023/07/09 00:24:47;;;;;;;10.77;5.88;;;22.90;99.90;;;;;;5071373;28;20032;-60
2023/07/09 00:27:16;;;;;;;7.45;5.18;;;23.10;99.90;;;;;;5060900;28;20493;-60
2023/07/09 00:29:42;;;;;;;9.85;5.70;;;23.10;99.90;;;;;;5067458;28;20061;-60
2023/07/09 00:32:16;;;;;;;10.80;5.80;;;23.00;99.90;;;;;;5066372;28;20036;-60
2023/07/09 00:34:48;;;;;;;9.52;5.93;;;23.10;99.90;;;;;;5069584;28;20041;-60
2023/07/09 00:37:15;;;;;;;11.95;5.97;;;23.00;99.90;;;;;;5062659;28;20041;-60
2023/07/09 00:39:41;;;;;;;7.97;5.30;;;23.20;99.90;;;;;;5071921;28;20139;-62
2023/07/09 00:42:17;;;;;;;9.63;5.95;;;23.10;99.90;;;;;;5070405;28;20508;-60
2023/07/09 00:44:53;;;;;;;11.98;5.80;;;23.00;99.90;;;;;;5064673;28;20036;-60
2023/07/09 00:47:26;;;;;;;11.48;6.00;;;22.90;99.90;;;;;;5065190;28;20058;-61
2023/07/09 00:50:04;;;;;;;8.68;5.90;;;22.80;99.90;;;;;;5064569;28;20041;-60
2023/07/09 00:52:38;;;;;;;9.70;5.30;;;22.80;99.90;;;;;;5063734;28;20070;-60
2023/07/09 00:55:14;;;;;;;8.15;5.82;;;22.90;99.90;;;;;;5065214;28;20400;-60
2023/07/09 00:57:42;;;;;;;9.05;5.93;;;22.70;99.90;;;;;;5064734;28;20025;-60
2023/07/09 01:00:13;;;;;;;9.93;6.18;;;22.80;99.90;;;;;;5061983;28;20068;-60
2023/07/09 01:02:46;;;;;;;9.80;6.13;;;22.70;99.90;;;;;;5068033;28;20039;-60
2023/07/09 01:05:13;;;;;;;8.65;5.43;;;22.70;99.90;;;;;;5069669;28;20039;-60
2023/07/09 01:07:39;;;;;;;8.65;6.20;;;22.80;99.90;;;;;;5065329;28;20082;-60
2023/07/09 01:10:05;;;;;;;8.23;5.90;;;22.70;99.90;;;;;;5064937;28;20037;-60
2023/07/09 01:12:31;;;;;;;11.35;5.90;;;22.80;99.90;;;;;;5067268;28;20119;-60
2023/07/09 01:14:58;;;;;;;8.77;6.45;;;22.70;99.90;;;;;;5064972;28;20123;-60
2023/07/09 01:17:27;;;;;;;7.85;5.88;;;22.70;99.90;;;;;;5062200;28;20043;-60
2023/07/09 01:19:54;;;;;;;9.48;5.55;;;22.60;99.90;;;;;;5065019;28;20683;-60
2023/07/09 01:22:21;;;;;;;8.82;6.10;;;22.60;99.90;;;;;;5065597;28;20549;-60
2023/07/09 01:25:03;;;;;;;8.23;5.85;;;22.60;99.90;;;;;;5069371;28;20043;-60
2023/07/09 01:27:39;;;;;;;10.60;6.50;;;22.50;99.90;;;;;;5067318;28;20032;-60
2023/07/09 01:30:08;;;;;;;10.15;6.13;;;22.60;99.90;;;;;;5068891;28;20035;-60
2023/07/09 01:32:34;;;;;;;8.68;6.00;;;22.50;99.90;;;;;;5067932;28;20468;-60
2023/07/09 01:35:04;;;;;;;10.18;5.70;;;22.50;99.90;;;;;;5068641;28;20044;-60
2023/07/09 01:37:31;;;;;;;8.25;5.95;;;22.40;99.90;;;;;;5068678;28;20055;-60
2023/07/09 01:39:56;;;;;;;9.45;5.97;;;22.40;99.90;;;;;;5068605;28;20041;-61
2023/07/09 01:42:24;;;;;;;8.27;5.85;;;22.30;99.90;;;;;;5067936;28;20025;-60
2023/07/09 01:44:51;;;;;;;7.07;5.55;;;22.30;99.90;;;;;;5068821;28;20480;-61
2023/07/09 01:47:17;;;;;;;10.15;5.97;;;22.20;99.90;;;;;;5071795;28;20064;-60
2023/07/09 01:49:46;;;;;;;9.93;5.65;;;22.30;99.90;;;;;;5069510;28;20480;-60
2023/07/09 01:52:13;;;;;;;9.45;6.25;;;22.30;99.90;;;;;;5067602;28;20088;-61
2023/07/09 01:54:39;;;;;;;13.50;5.80;;;22.10;99.90;;;;;;5071890;28;20571;-60
2023/07/09 01:57:24;;;;;;;10.05;6.35;;;22.00;99.90;;;;;;5066926;28;20051;-60
2023/07/09 01:59:54;;;;;;;9.75;6.45;;;22.00;99.90;;;;;;5060113;28;20086;-60
2023/07/09 02:02:25;;;;;;;9.65;6.40;;;22.20;99.90;;;;;;5070158;28;20115;-60
2023/07/09 02:04:55;;;;;;;8.57;5.45;;;22.10;99.90;;;;;;5070470;28;20060;-60
2023/07/09 02:07:23;;;;;;;9.80;6.30;;;22.00;99.90;;;;;;5064663;28;21100;-61
2023/07/09 02:09:49;;;;;;;9.38;6.55;;;22.00;99.90;;;;;;5076219;28;20036;-60
2023/07/09 02:12:16;;;;;;;10.32;6.60;;;21.90;99.90;;;;;;5068037;28;20496;-60
2023/07/09 02:14:43;;;;;;;9.27;6.22;;;21.90;99.90;;;;;;5067678;28;20029;-60
2023/07/09 02:17:10;;;;;;;10.43;6.10;;;22.00;99.90;;;;;;5069646;28;20047;-60
2023/07/09 02:19:36;;;;;;;10.02;6.30;;;22.00;99.90;;;;;;5070121;28;21239;-60
2023/07/09 02:22:02;;;;;;;10.45;6.05;;;22.00;99.90;;;;;;5068223;28;20132;-60
2023/07/09 02:24:27;;;;;;;8.32;6.15;;;21.90;99.90;;;;;;5065366;28;20120;-60
2023/07/09 02:26:57;;;;;;;9.20;6.38;;;21.90;99.90;;;;;;5068590;28;20700;-60
2023/07/09 02:29:23;;;;;;;9.80;6.07;;;21.90;99.90;;;;;;5074891;28;20056;-60
2023/07/09 02:31:50;;;;;;;9.52;6.28;;;21.90;99.90;;;;;;5067954;28;20040;-61
2023/07/09 02:34:17;;;;;;;11.80;6.38;;;21.90;99.90;;;;;;5066751;28;20174;-60
2023/07/09 02:36:42;;;;;;;10.45;6.55;;;21.70;99.90;;;;;;5067255;28;20036;-60
2023/07/09 02:39:13;;;;;;;8.88;6.40;;;21.80;99.90;;;;;;5067191;28;20045;-60
2023/07/09 02:41:39;;;;;;;8.93;6.05;;;21.80;99.90;;;;;;5066546;28;20068;-60
2023/07/09 02:44:05;;;;;;;9.50;6.22;;;21.70;99.90;;;;;;5067162;28;20048;-61
2023/07/09 02:46:31;;;;;;;10.60;6.72;;;21.70;99.90;;;;;;5069241;28;20041;-60
2023/07/09 02:48:57;;;;;;;12.48;6.78;;;21.70;99.90;;;;;;5067404;28;20040;-60
2023/07/09 02:51:24;;;;;;;8.48;6.50;;;21.70;99.90;;;;;;5067456;28;20037;-60
2023/07/09 02:53:49;;;;;;;10.75;6.47;;;21.60;99.90;;;;;;5065842;28;20032;-60
2023/07/09 02:56:15;;;;;;;14.05;6.75;;;21.60;99.90;;;;;;5064951;28;20028;-60
2023/07/09 02:58:41;;;;;;;11.23;6.60;;;21.60;99.90;;;;;;5068624;28;20123;-60
2023/07/09 03:01:06;;;;;;;10.10;6.47;;;21.50;99.90;;;;;;5045809;28;20068;-60
2023/07/09 03:03:32;;;;;;;11.23;6.13;;;21.50;99.90;;;;;;5066318;28;20032;-60
2023/07/09 03:05:57;;;;;;;12.40;6.82;;;21.60;99.90;;;;;;5073368;28;20236;-60
2023/07/09 03:08:23;;;;;;;11.25;6.38;;;21.50;99.90;;;;;;5066788;28;20555;-60
2023/07/09 03:10:48;;;;;;;10.52;6.68;;;21.60;99.90;;;;;;5067517;28;20028;-60
2023/07/09 03:13:14;;;;;;;10.20;6.28;;;22.00;99.90;;;;;;5065684;28;20032;-60
2023/07/09 03:15:39;;;;;;;10.48;6.57;;;21.50;99.90;;;;;;5065872;28;20040;-60
2023/07/09 03:18:05;;;;;;;9.97;6.20;;;21.50;99.90;;;;;;5067887;28;20495;-60
2023/07/09 03:20:31;;;;;;;11.13;6.75;;;21.50;99.90;;;;;;5068948;28;20048;-61
2023/07/09 03:22:57;;;;;;;9.95;6.63;;;21.50;99.90;;;;;;5067751;28;20333;-60
2023/07/09 03:25:22;;;;;;;15.35;6.47;;;21.50;99.90;;;;;;5065889;28;20428;-60
2023/07/09 03:27:49;;;;;;;10.23;6.90;;;21.50;99.90;;;;;;5067385;28;20036;-60
2023/07/09 03:30:14;;;;;;;12.07;6.72;;;21.50;99.90;;;;;;5074562;28;20021;-60
2023/07/09 03:32:40;;;;;;;10.27;6.65;;;21.40;99.90;;;;;;5062103;28;20032;-60
2023/07/09 03:35:06;;;;;;;10.25;6.05;;;21.50;99.90;;;;;;5064640;28;20440;-60
2023/07/09 03:37:32;;;;;;;9.32;6.65;;;21.40;99.90;;;;;;5066680;28;20320;-60
2023/07/09 03:39:58;;;;;;;9.80;6.15;;;21.50;99.90;;;;;;5063472;28;20033;-60
2023/07/09 03:42:23;;;;;;;13.82;6.93;;;21.40;99.90;;;;;;5065767;28;20432;-60
2023/07/09 03:44:49;;;;;;;9.88;6.75;;;21.40;99.90;;;;;;5065197;28;20396;-60
2023/07/09 03:47:14;;;;;;;10.25;6.28;;;21.40;99.90;;;;;;5066280;28;20043;-60
2023/07/09 03:49:41;;;;;;;12.80;6.80;;;21.40;99.90;;;;;;5063839;28;20028;-60
2023/07/09 03:52:07;;;;;;;10.20;5.97;;;21.40;99.90;;;;;;5065827;28;20036;-60
2023/07/09 03:54:33;;;;;;;11.70;6.03;;;21.40;99.90;;;;;;5066242;28;20522;-61
2023/07/09 03:56:59;;;;;;;10.70;6.53;;;21.30;99.90;;;;;;5065195;28;20032;-60
2023/07/09 03:59:24;;;;;;;10.25;6.50;;;21.30;99.90;;;;;;5065004;28;20046;-60
2023/07/09 04:01:50;;;;;;;11.77;6.70;;;21.40;99.90;;;;;;5066339;28;20750;-60
2023/07/09 04:04:20;;;;;;;10.80;6.65;;;21.40;99.90;;;;;;5064756;28;20044;-60
2023/07/09 04:06:46;;;;;;;14.07;6.72;;;21.40;99.90;;;;;;5061379;28;20393;-60
2023/07/09 04:09:11;;;;;;;12.57;6.90;;;21.40;99.90;;;;;;5064368;28;20028;-60
2023/07/09 04:11:37;;;;;;;11.77;7.03;;;21.40;99.90;;;;;;5066354;28;20040;-60
2023/07/09 04:14:02;;;;;;;10.23;6.70;;;21.40;99.90;;;;;;5064875;28;20031;-60
2023/07/09 04:16:28;;;;;;;10.90;6.60;;;21.40;99.90;;;;;;5067004;28;20040;-60
2023/07/09 04:18:53;;;;;;;9.77;5.80;;;21.60;99.90;;;;;;5065039;28;20070;-60
2023/07/09 04:21:19;;;;;;;10.88;6.65;;;21.60;99.90;;;;;;5063418;28;20083;-60
2023/07/09 04:23:44;;;;;;;12.25;6.53;;;21.60;99.90;;;;;;5065240;28;20147;-60
2023/07/09 04:26:14;;;;;;;8.80;6.57;;;21.50;99.90;;;;;;5065204;28;20040;-60
2023/07/09 04:28:39;;;;;;;12.52;7.05;;;21.50;99.90;;;;;;5065812;28;20079;-60
2023/07/09 04:31:05;;;;;;;11.57;7.22;;;21.70;99.90;;;;;;5066858;28;20469;-60
2023/07/09 04:33:31;;;;;;;11.45;7.30;;;21.70;99.90;;;;;;5065321;28;20040;-60
2023/07/09 04:35:56;;;;;;;14.07;6.90;;;21.60;99.90;;;;;;5064920;28;20035;-60
2023/07/09 04:38:22;;;;;;;13.48;6.97;;;21.70;99.90;;;;;;5064741;28;20079;-60
2023/07/09 04:40:48;;;;;;;11.30;6.70;;;21.70;99.90;;;;;;5065052;28;20039;-60
2023/07/09 04:43:14;;;;;;;9.73;6.60;;;21.70;99.90;;;;;;5059491;28;20500;-60
2023/07/09 04:45:39;;;;;;;10.07;6.57;;;21.80;99.90;;;;;;5068557;28;20028;-60
2023/07/09 04:48:05;;;;;;;13.40;6.90;;;21.80;99.90;;;;;;5065257;28;20119;-60
2023/07/09 04:50:31;;;;;;;12.10;7.32;;;21.90;99.90;;;;;;5066460;28;20487;-60
2023/07/09 04:52:56;;;;;;;10.60;6.60;;;22.00;99.90;;;;;;5064863;28;20029;-63
2023/07/09 04:55:22;;;;;;;8.68;6.22;;;22.20;99.90;;;;;;5064220;28;20024;-61
2023/07/09 04:57:48;;;;;;;9.70;7.18;;;22.10;99.90;;;;;;5062692;28;20033;-62
2023/07/09 05:00:14;;;;;;;9.63;6.50;;;22.20;99.90;;;;;;5064926;28;20037;-62
2023/07/09 05:02:39;;;;;;;9.90;6.63;;;22.20;99.90;;;;;;5065100;28;20036;-62
2023/07/09 05:05:07;;;;;;;11.57;6.72;;;22.20;99.90;;;;;;5064533;28;20037;-63
2023/07/09 05:07:33;;;;;;;9.70;6.32;;;22.30;99.90;;;;;;5065431;28;20040;-62
2023/07/09 05:09:58;;;;;;;9.25;6.45;;;22.40;99.90;;;;;;5064891;28;20428;-62
2023/07/09 05:12:27;;;;;;;9.55;5.88;;;22.60;99.90;;;;;;5064448;28;20037;-62
2023/07/09 05:14:52;;;;;;;11.05;5.78;;;22.80;99.90;;;;;;5062620;28;20119;-62
2023/07/09 05:17:18;;;;;;;10.68;6.43;;;22.80;99.90;;;;;;5066794;28;20460;-61
2023/07/09 05:19:43;;;;;;;8.25;6.35;;;22.90;99.90;;;;;;5065394;28;20045;-61
2023/07/09 05:22:11;;;;;;;10.15;6.20;;;22.80;99.90;;;;;;5064629;28;20075;-61
2023/07/09 05:24:37;;;;;;;11.30;6.07;;;23.10;99.90;;;;;;5066588;28;20040;-63
2023/07/09 05:27:03;;;;;;;8.85;6.10;;;23.40;99.90;;;;;;5065079;28;20028;-62
2023/07/09 05:29:28;;;;;;;8.00;5.80;;;23.30;99.90;;;;;;5065521;28;20029;-62
2023/07/09 05:31:56;;;;;;;10.82;6.72;;;23.20;99.90;;;;;;5063204;28;20036;-62
2023/07/09 05:34:22;;;;;;;8.30;5.55;;;23.30;99.90;;;;;;5064575;28;20051;-62
2023/07/09 05:36:47;;;;;;;11.70;5.82;;;23.30;99.90;;;;;;5064678;28;20407;-62
2023/07/09 05:39:13;;;;;;;10.57;5.95;;;23.20;99.90;;;;;;5063051;28;20080;-63
2023/07/09 05:41:39;;;;;;;9.45;6.03;;;23.40;99.90;;;;;;5067846;28;20032;-62
2023/07/09 05:44:05;;;;;;;9.52;6.25;;;23.50;99.90;;;;;;5064565;28;20404;-61
2023/07/09 05:46:36;;;;;;;9.93;5.70;;;23.50;99.90;;;;;;5067367;28;20094;-62
2023/07/09 05:49:02;;;;;;;9.10;5.70;;;23.50;99.90;;;;;;5059540;28;20082;-59
2023/07/09 05:51:28;;;;;;;12.45;6.32;;;23.50;99.90;;;;;;5064261;28;20500;-62
2023/07/09 05:53:53;;;;;;;7.40;5.40;;;23.60;99.90;;;;;;5064441;28;20073;-62
2023/07/09 05:56:19;;;;;;;11.15;6.07;;;23.60;99.90;;;;;;5063452;28;20060;-61
2023/07/09 05:58:45;;;;;;;9.02;5.63;;;23.70;99.90;;;;;;5064104;28;20036;-63
2023/07/09 06:01:10;;;;;;;10.85;5.90;;;23.90;99.90;;;;;;5064067;28;20287;-63
2023/07/09 06:03:36;;;;;;;13.13;6.30;;;23.90;99.90;;;;;;5064317;28;20036;-62
2023/07/09 06:06:01;;;;;;;9.98;5.75;;;23.80;99.90;;;;;;5061518;28;20549;-60
2023/07/09 06:08:27;;;;;;;9.18;5.60;;;23.90;99.90;;;;;;5065244;28;20036;-61
2023/07/09 06:11:01;;;;;;;9.75;5.47;;;23.90;99.90;;;;;;5068510;28;20556;-62
2023/07/09 06:13:30;;;;;;;8.30;5.38;;;24.00;99.90;;;;;;5069698;28;20029;-63
2023/07/09 06:15:56;;;;;;;9.80;5.43;;;24.10;99.90;;;;;;5074004;28;20127;-62
2023/07/09 06:18:23;;;;;;;12.30;5.85;;;24.20;99.90;;;;;;5068058;28;20116;-62
2023/07/09 06:20:51;;;;;;;11.93;5.85;;;24.20;99.90;;;;;;5075031;28;20035;-62
2023/07/09 06:23:17;;;;;;;11.60;5.97;;;24.30;99.90;;;;;;5070953;28;20408;-62
2023/07/09 06:25:47;;;;;;;10.52;5.57;;;24.40;99.90;;;;;;5071913;28;20397;-62
2023/07/09 06:28:16;;;;;;;10.20;5.60;;;24.50;99.90;;;;;;5075681;28;20131;-62
2023/07/09 06:30:42;;;;;;;10.18;4.95;;;24.60;99.90;;;;;;5055738;28;20477;-62
2023/07/09 06:33:09;;;;;;;12.73;6.07;;;24.60;99.90;;;;;;5069607;28;20035;-61
2023/07/09 06:35:35;;;;;;;10.48;5.38;;;24.70;99.90;;;;;;5068005;28;20032;-62
2023/07/09 06:38:00;;;;;;;8.85;5.30;;;24.80;99.90;;;;;;5069792;28;20545;-62
2023/07/09 06:40:26;;;;;;;12.15;5.90;;;24.80;99.90;;;;;;5066617;28;20049;-62
2023/07/09 06:42:51;;;;;;;10.05;5.88;;;25.30;99.90;;;;;;5058988;28;20127;-63
2023/07/09 06:45:17;;;;;;;10.90;5.97;;;25.00;99.90;;;;;;5063010;28;20036;-63
2023/07/09 06:47:42;;;;;;;7.40;5.18;;;25.40;99.90;;;;;;5070770;28;20480;-63
2023/07/09 06:50:08;;;;;;;9.00;5.78;;;25.40;99.90;;;;;;5068364;28;20036;-63
2023/07/09 06:52:34;;;;;;;10.65;5.82;;;25.40;99.90;;;;;;5067963;28;20033;-63
2023/07/09 06:54:59;;;;;;;7.88;5.70;;;25.10;99.90;;;;;;5062809;28;20124;-63
2023/07/09 06:57:25;;;;;;;9.98;5.35;;;25.50;99.90;;;;;;5059709;28;20044;-64
2023/07/09 06:59:50;;;;;;;10.88;5.88;;;25.50;99.90;;;;;;5063765;28;20510;-64
2023/07/09 07:02:16;;;;;;;10.65;5.88;;;25.60;99.90;;;;;;5063952;28;20290;-63
2023/07/09 07:04:42;;;;;;;10.75;5.40;;;25.80;99.90;;;;;;5061885;28;20047;-63
2023/07/09 07:07:07;;;;;;;9.82;5.25;;;25.80;99.90;;;;;;5062526;28;20101;-63
2023/07/09 07:09:33;;;;;;;8.38;5.47;;;26.20;99.90;;;;;;5063649;28;20075;-64
2023/07/09 07:11:58;;;;;;;10.13;5.00;;;25.90;99.90;;;;;;5068083;28;20037;-63
2023/07/09 07:14:24;;;;;;;9.90;5.63;;;25.90;99.90;;;;;;5067489;28;20029;-63
2023/07/09 07:16:50;;;;;;;8.35;5.20;;;26.00;99.90;;;;;;5067856;28;20376;-63
2023/07/09 07:19:15;;;;;;;8.20;5.18;;;26.10;99.90;;;;;;5062846;28;20029;-63
2023/07/09 07:21:41;;;;;;;7.95;5.60;;;26.10;99.90;;;;;;5062852;28;20028;-64
2023/07/09 07:24:07;;;;;;;9.07;5.10;;;26.20;99.90;;;;;;5065977;28;20025;-63
2023/07/09 07:26:32;;;;;;;9.73;5.30;;;26.40;99.90;;;;;;5065012;28;20044;-63
2023/07/09 07:28:58;;;;;;;11.57;5.63;;;26.60;99.90;;;;;;5069523;28;20044;-63
2023/07/09 07:31:23;;;;;;;8.65;5.20;;;26.60;99.90;;;;;;5059112;28;20049;-63
2023/07/09 07:33:50;;;;;;;8.55;5.50;;;26.60;99.90;;;;;;5071122;28;20048;-64
2023/07/09 07:36:16;;;;;;;22.73;18.02;;;26.80;99.90;;;;;;5066602;28;20037;-63
2023/07/09 07:38:41;;;;;;;34.10;29.02;;;26.90;99.90;;;;;;5067669;28;20490;-60
2023/07/09 07:41:07;;;;;;;9.63;5.38;;;26.90;99.90;;;;;;5068587;28;20482;-60
2023/07/09 07:43:33;;;;;;;9.65;5.72;;;27.00;99.90;;;;;;5071995;28;20512;-60
2023/07/09 07:45:58;;;;;;;9.52;4.88;;;27.00;99.90;;;;;;5071510;28;20033;-60
2023/07/09 07:48:24;;;;;;;8.82;4.72;;;27.40;99.90;;;;;;5069332;28;20498;-61
2023/07/09 07:50:50;;;;;;;9.13;4.68;;;27.30;99.90;;;;;;5074035;28;20017;-61
2023/07/09 07:53:16;;;;;;;11.85;5.40;;;27.40;99.90;;;;;;5066449;28;20033;-60
2023/07/09 07:55:42;;;;;;;8.77;5.22;;;27.40;99.90;;;;;;5068294;28;20111;-61
2023/07/09 07:58:12;;;;;;;7.82;4.80;;;27.50;99.90;;;;;;5067801;28;20036;-60
2023/07/09 08:00:39;;;;;;;7.85;4.85;;;27.40;99.90;;;;;;5077228;28;20101;-61
2023/07/09 08:03:04;;;;;;;6.45;4.95;;;27.60;99.90;;;;;;5070007;28;20046;-60
2023/07/09 08:05:30;;;;;;;8.88;5.50;;;27.60;99.90;;;;;;5071482;28;20036;-62
2023/07/09 08:07:56;;;;;;;8.07;4.90;;;27.60;99.90;;;;;;5075901;28;20081;-61
2023/07/09 08:10:21;;;;;;;11.07;5.28;;;27.60;99.90;;;;;;5074873;28;20048;-60
2023/07/09 08:12:47;;;;;;;7.05;4.80;;;27.70;99.90;;;;;;5071684;28;20069;-62
2023/07/09 08:15:13;;;;;;;7.57;5.05;;;27.90;99.90;;;;;;5071455;28;20044;-62
2023/07/09 08:17:39;;;;;;;12.50;5.53;;;27.90;99.90;;;;;;5067111;28;20402;-61
2023/07/09 08:20:05;;;;;;;9.60;5.10;;;28.00;99.90;;;;;;5076435;28;20044;-62
2023/07/09 08:22:30;;;;;;;7.80;4.95;;;28.00;99.90;;;;;;5063605;28;20037;-61
2023/07/09 08:24:56;;;;;;;9.13;4.97;;;28.20;99.90;;;;;;5068882;28;20749;-62
2023/07/09 08:27:22;;;;;;;10.30;5.20;;;28.30;99.90;;;;;;5069435;28;20038;-62
2023/07/09 08:29:48;;;;;;;9.32;4.95;;;;;;;;;;5072088;28;20044;-62
2023/07/09 08:32:14;;;;;;;11.05;5.05;;;28.80;99.90;;;;;;5073297;28;20040;-61
2023/07/09 08:34:41;;;;;;;7.57;4.78;;;28.40;99.90;;;;;;5078421;28;20392;-61
2023/07/09 08:37:08;;;;;;;9.00;5.07;;;28.50;99.90;;;;;;5068824;28;20547;-61
2023/07/09 08:39:34;;;;;;;13.43;6.18;;;28.60;99.90;;;;;;5067763;28;20032;-62
2023/07/09 08:42:15;;;;;;;10.48;5.38;;;28.60;99.90;;;;;;5066511;28;20028;-60
2023/07/09 08:44:46;;;;;;;9.48;4.80;;;28.70;99.90;;;;;;5066357;28;20028;-60
2023/07/09 08:47:23;;;;;;;8.98;4.70;;;28.80;99.90;;;;;;5066967;28;20131;-60
2023/07/09 08:49:59;;;;;;;8.07;4.88;;;28.90;99.90;;;;;;5062129;28;20039;-60
2023/07/09 08:52:35;;;;;;;6.38;4.40;;;29.10;99.90;;;;;;5065841;28;20543;-60
2023/07/09 08:55:09;;;;;;;7.13;4.50;;;29.10;99.90;;;;;;5062668;28;20128;-60
2023/07/09 08:57:42;;;;;;;14.43;6.22;;;29.20;99.90;;;;;;5064990;28;20441;-60
2023/07/09 09:00:16;;;;;;;7.03;4.85;;;29.30;99.90;;;;;;5066182;28;20040;-60
2023/07/09 09:02:51;;;;;;;6.47;4.60;;;29.40;99.90;;;;;;5062571;28;20102;-60
2023/07/09 09:05:20;;;;;;;7.00;4.40;;;29.50;99.90;;;;;;5071104;28;20065;-60
2023/07/09 09:07:53;;;;;;;6.13;4.50;;;29.50;99.90;;;;;;5066873;28;20112;-60
2023/07/09 09:10:28;;;;;;;7.50;4.60;;;29.50;99.90;;;;;;5066141;28;20032;-60
2023/07/09 09:13:09;;;;;;;8.38;4.32;;;29.70;99.90;;;;;;5057789;28;20051;-60
2023/07/09 09:15:36;;;;;;;9.18;4.97;;;29.80;99.90;;;;;;5068277;28;20397;-60
2023/07/09 09:18:26;;;;;;;13.30;5.97;;;29.80;99.90;;;;;;5069474;28;20039;-61
2023/07/09 09:21:22;;;;;;;13.98;12.57;;;30.00;99.90;;;;;;5063776;28;20398;-61
2023/07/09 09:24:10;;;;;;;8.45;4.88;;;30.10;99.90;;;;;;5058949;28;20067;-62
2023/07/09 09:26:41;;;;;;;8.45;4.80;;;30.10;99.90;;;;;;5062043;28;20067;-62
2023/07/09 09:29:14;;;;;;;7.75;4.60;;;30.30;99.90;;;;;;5060164;28;20040;-61
2023/07/09 09:31:42;;;;;;;7.43;4.55;;;30.30;99.90;;;;;;5061641;28;20060;-61
2023/07/09 09:34:18;;;;;;;6.90;4.13;;;30.40;99.90;;;;;;5066565;28;20488;-61
2023/07/09 09:36:44;;;;;;;9.00;4.65;;;30.40;99.90;;;;;;5061408;28;20036;-61
2023/07/09 09:39:10;;;;;;;12.05;4.72;;;30.50;99.90;;;;;;5063035;28;20122;-61
2023/07/09 09:41:37;;;;;;;10.38;4.90;;;30.50;99.90;;;;;;5061845;28;20155;-61
2023/07/09 09:44:04;;;;;;;7.28;4.63;;;30.60;99.90;;;;;;5050740;28;20500;-61
2023/07/09 09:46:32;;;;;;;7.07;4.50;;;30.60;99.90;;;;;;5070440;28;20435;-61
2023/07/09 09:49:02;;;;;;;8.52;4.72;;;30.70;99.90;;;;;;5073758;28;20032;-62
2023/07/09 09:51:29;;;;;;;8.02;4.90;;;30.60;99.90;;;;;;5068360;28;20396;-61
2023/07/09 09:53:59;;;;;;;8.18;5.13;;;30.70;99.90;;;;;;5069490;28;20032;-62
2023/07/09 09:56:30;;;;;;;9.57;4.80;;;30.80;99.90;;;;;;5068992;28;20033;-61
2023/07/09 09:58:57;;;;;;;9.45;5.10;;;30.90;99.90;;;;;;5062916;28;20523;-61
2023/07/09 10:01:32;;;;;;;5.68;4.32;;;30.90;99.90;;;;;;5068552;28;20048;-61
2023/07/09 10:04:00;;;;;;;9.30;5.07;;;31.00;99.90;;;;;;5061892;28;20425;-61
2023/07/09 10:06:41;;;;;;;8.98;4.80;;;31.00;99.90;;;;;;5067294;28;20387;-62
2023/07/09 10:09:07;;;;;;;8.35;4.53;;;31.20;99.90;;;;;;5066185;28;20392;-61
2023/07/09 10:11:47;;;;;;;9.90;5.20;;;31.20;99.90;;;;;;5070748;28;20032;-62
2023/07/09 10:14:38;;;;;;;11.68;9.25;;;31.20;99.90;;;;;;5066572;28;20106;-62
2023/07/09 10:17:25;;;;;;;11.10;5.20;;;31.30;99.90;;;;;;5055645;28;20033;-65
2023/07/09 10:19:58;;;;;;;6.53;4.53;;;31.30;99.90;;;;;;5064230;28;20131;-64
2023/07/09 10:22:57;;;;;;;7.18;4.25;;;31.30;99.90;;;;;;5061033;28;20493;-63
2023/07/09 10:25:34;;;;;;;6.53;4.43;;;31.50;99.90;;;;;;5067467;28;20037;-64
2023/07/09 10:28:16;;;;;;;9.00;4.25;;;31.50;99.90;;;;;;5075033;28;20831;-64
2023/07/09 10:30:48;;;;;;;7.63;4.20;;;31.60;99.90;;;;;;5061580;28;20043;-64
2023/07/09 10:33:27;;;;;;;8.57;4.70;;;31.80;99.90;;;;;;5067440;28;20492;-64
2023/07/09 10:36:07;;;;;;;9.70;4.38;;;31.70;99.90;;;;;;5068319;28;20037;-63
2023/07/09 10:38:48;;;;;;;8.10;4.40;;;31.70;99.90;;;;;;5064198;28;20103;-64
2023/07/09 10:41:16;;;;;;;8.52;4.43;;;31.80;99.90;;;;;;5071546;28;20104;-64
2023/07/09 10:43:54;;;;;;;7.70;4.63;;;31.80;99.90;;;;;;5070408;28;20031;-64
2023/07/09 10:46:31;;;;;;;7.00;4.63;;;31.90;99.90;;;;;;5072072;28;20036;-64
2023/07/09 10:48:58;;;;;;;6.45;4.65;;;32.00;99.80;;;;;;5064996;28;20133;-64
2023/07/09 10:51:41;;;;;;;8.57;5.38;;;32.00;99.90;;;;;;5066499;28;20562;-64
2023/07/09 10:54:38;;;;;;;25.88;18.60;;;31.90;97.00;;;;;;5064319;28;20033;-64
2023/07/09 10:57:21;;;;;;;29.98;23.38;;;32.00;99.30;;;;;;5068205;28;20404;-64
2023/07/09 10:59:49;;;;;;;12.88;5.20;;;32.00;95.80;;;;;;5072003;28;20040;-64
2023/07/09 11:02:24;;;;;;;16.70;9.80;;;32.20;99.60;;;;;;5070734;28;20058;-64
2023/07/09 11:04:52;;;;;;;30.45;22.13;;;32.20;99.30;;;;;;5060650;28;20044;-64
2023/07/09 11:07:26;;;;;;;48.80;39.95;;;32.20;96.10;;;;;;5067086;28;20492;-64
2023/07/09 11:09:56;;;;;;;8.93;5.03;;;32.20;97.60;;;;;;5068692;28;20071;-64
2023/07/09 11:12:35;;;;;;;10.57;5.30;;;32.20;97.30;;;;;;5058506;28;20493;-66
2023/07/09 11:15:17;;;;;;;11.27;5.97;;;32.30;97.70;;;;;;5066370;28;20377;-64
2023/07/09 11:17:46;;;;;;;7.35;5.00;;;32.30;97.70;;;;;;5068820;28;20029;-65
2023/07/09 11:20:40;;;;;;;8.05;4.70;;;32.30;93.50;;;;;;5071243;28;20136;-65
2023/07/09 11:23:17;;;;;;;7.40;4.72;;;32.40;93.90;;;;;;5062699;28;20032;-65
2023/07/09 11:25:46;;;;;;;9.18;4.72;;;32.40;93.00;;;;;;5067930;28;20063;-64
2023/07/09 11:28:12;;;;;;;7.40;4.90;;;32.40;93.60;;;;;;5070978;28;20378;-64
2023/07/09 11:30:54;;;;;;;6.60;4.43;;;32.40;93.30;;;;;;5068931;28;20037;-65
2023/07/09 11:33:30;;;;;;;19.77;12.60;;;32.40;91.20;;;;;;5066988;28;20484;-62
2023/07/09 11:36:11;;;;;;;7.50;5.00;;;32.40;92.30;;;;;;5067413;28;20090;-58
2023/07/09 11:38:41;;;;;;;44.08;34.47;;;32.30;91.10;;;;;;5066344;28;20033;-62
2023/07/09 11:41:28;;;;;;;69.72;51.88;;;32.50;93.30;;;;;;5066538;28;20033;-62
2023/07/09 11:44:08;;;;;;;257.40;216.70;;;32.70;92.70;;;;;;5061995;28;20099;-62
2023/07/09 11:46:39;;;;;;;96.95;78.00;;;32.70;91.80;;;;;;5068749;28;20036;-62
2023/07/09 11:49:08;;;;;;;30.45;22.65;;;32.70;93.70;;;;;;5062699;28;20060;-62
2023/07/09 11:51:52;;;;;;;23.20;15.70;;;32.50;92.10;;;;;;5070246;28;20048;-63
2023/07/09 11:54:18;;;;;;;11.98;9.10;;;32.50;92.30;;;;;;5059930;28;20060;-64
2023/07/09 11:56:54;;;;;;;12.90;6.32;;;32.50;92.90;;;;;;5045414;28;20521;-63
2023/07/09 11:59:20;;;;;;;25.20;12.30;;;32.50;91.20;;;;;;5065264;28;20032;-69
2023/07/09 12:01:48;;;;;;;50.78;37.67;;;32.60;92.20;;;;;;5062117;28;20043;-66
2023/07/09 12:04:16;;;;;;;125.18;100.50;;;32.70;92.50;;;;;;5058106;28;20041;-65
2023/07/09 12:06:44;;;;;;;13.45;8.90;;;32.70;92.50;;;;;;5054698;28;20037;-63
2023/07/09 12:09:17;;;;;;;8.52;5.22;;;32.60;92.00;;;;;;5064327;28;20033;-64
2023/07/09 12:11:45;;;;;;;13.27;9.20;;;32.70;91.50;;;;;;5066790;28;20039;-69
2023/07/09 12:14:14;;;;;;;77.25;62.25;;;32.80;90.50;;;;;;5066448;28;20037;-63
2023/07/09 12:16:42;;;;;;;17.73;10.05;;;32.80;92.20;;;;;;5067822;28;20170;-69
2023/07/09 12:19:10;;;;;;;8.13;5.00;;;32.70;92.50;;;;;;5068357;28;20458;-68
2023/07/09 12:21:38;;;;;;;8.80;6.38;;;32.70;93.50;;;;;;5068250;28;20037;-66
2023/07/09 12:24:21;;;;;;;14.70;8.60;;;32.70;92.60;;;;;;5067591;28;20060;-67
2023/07/09 12:26:52;;;;;;;19.77;13.50;;;32.70;93.00;;;;;;5056069;28;20511;-66
2023/07/09 12:29:17;;;;;;;13.07;8.48;;;32.80;93.00;;;;;;5056686;28;20263;-66
2023/07/09 12:31:43;;;;;;;51.28;30.15;;;32.80;94.40;;;;;;5067155;28;20043;-65
2023/07/09 12:34:14;;;;;;;24.83;17.58;;;32.90;94.00;;;;;;5070743;28;20044;-64
2023/07/09 12:36:45;;;;;;;24.00;17.63;;;32.90;94.50;;;;;;5062283;28;20037;-67
2023/07/09 12:39:12;;;;;;;21.38;13.35;;;32.90;94.60;;;;;;5069367;28;20036;-63
2023/07/09 12:41:40;;;;;;;14.63;8.65;;;32.80;93.90;;;;;;5063509;28;20028;-67
2023/07/09 12:44:15;;;;;;;13.50;9.20;;;32.70;92.30;;;;;;5070291;28;20032;-65
2023/07/09 12:46:42;;;;;;;12.98;8.60;;;32.70;93.60;;;;;;5057667;28;20438;-64
2023/07/09 12:49:07;;;;;;;73.20;53.58;;;32.70;91.40;;;;;;5060975;28;20032;-64